Terminal Aerodrome Forecast
Issued by NWS

Home | Current Version | Previous Version | Text Only | Print | Product List | Glossary On
Versions: 1 2 3 4 5 6 7 8 9 10 11 12 13 14 15
483
FTAK31 PAJN 251734
TAFAWG
TAF
PAWG 251734Z 2518/2618 11010KT P6SM -SHRA FEW010 BKN040 OVC050
     FM260000 VRB02KT P6SM -SHRA BKN025 OVC050
     FM260300 12003KT P6SM -RA BKN020 OVC030
     FM261000 VRB03KT 3SM -RA BR SCT012 OVC020
      AMD LTD TO CLD VIS AND WIND 2606/2615=

USA.gov is the U.S. government's official web portal to all federal, state and local government web resources and services.